Time;durP1;ratioP1;P1;durP2;ratioP2;P2;SDS_P1;SDS_P2;PMS_P1;PMS_P2;Temp;Humidity;BMP_temperature;BMP_pressure;BME280_temperature;BME280_humidity;BME280_pressure;Samples;Min_cycle;Max_cycle;Signal;HPM_P1;HPM_P2
2023/08/15 00:01:06;;;;;;;16.17;8.43;;;18.00;99.90;;;;;;5060423;28;20407;-72
2023/08/15 00:03:32;;;;;;;16.35;7.80;;;17.90;99.90;;;;;;5065248;28;20063;-72
2023/08/15 00:05:58;;;;;;;13.75;8.43;;;17.90;99.90;;;;;;5063777;28;20098;-71
2023/08/15 00:08:23;;;;;;;12.82;8.02;;;17.90;99.90;;;;;;5060772;28;20495;-71
2023/08/15 00:10:49;;;;;;;11.52;7.50;;;17.90;99.90;;;;;;5028362;28;20072;-70
2023/08/15 00:13:15;;;;;;;11.68;7.55;;;17.80;99.90;;;;;;5063918;28;20048;-71
2023/08/15 00:15:40;;;;;;;15.68;8.10;;;17.80;99.90;;;;;;5048503;28;20036;-71
2023/08/15 00:18:06;;;;;;;16.73;8.93;;;17.80;99.90;;;;;;5043748;28;20068;-70
2023/08/15 00:20:32;;;;;;;14.60;8.85;;;17.80;99.90;;;;;;5045179;28;20433;-71
2023/08/15 00:22:57;;;;;;;17.83;9.35;;;17.80;99.90;;;;;;5048008;28;20131;-70
2023/08/15 00:25:23;;;;;;;14.43;8.38;;;17.70;99.90;;;;;;5063648;28;20279;-72
2023/08/15 00:27:48;;;;;;;14.95;9.25;;;17.70;99.90;;;;;;5064924;28;20151;-70
2023/08/15 00:30:14;;;;;;;15.68;9.13;;;17.70;99.90;;;;;;5063641;28;20044;-70
2023/08/15 00:32:40;;;;;;;14.70;8.38;;;17.70;99.90;;;;;;5043975;28;20041;-71
2023/08/15 00:35:06;;;;;;;19.20;8.73;;;17.70;99.90;;;;;;5043403;28;20041;-71
2023/08/15 00:37:32;;;;;;;12.38;8.73;;;17.70;99.90;;;;;;5044755;28;20400;-71
2023/08/15 00:39:58;;;;;;;13.10;8.95;;;17.70;99.90;;;;;;5045787;28;20608;-70
2023/08/15 00:42:24;;;;;;;13.68;8.55;;;17.70;99.90;;;;;;5031236;28;20049;-70
2023/08/15 00:44:49;;;;;;;12.45;8.07;;;17.60;99.90;;;;;;5039553;28;20087;-71
2023/08/15 00:47:15;;;;;;;12.77;8.35;;;17.60;99.90;;;;;;5064609;28;20075;-71
2023/08/15 00:49:45;;;;;;;13.50;8.55;;;17.60;99.90;;;;;;5050802;28;20454;-71
2023/08/15 00:52:13;;;;;;;13.98;8.18;;;17.60;99.90;;;;;;5067583;28;20182;-72
2023/08/15 00:54:42;;;;;;;14.85;7.78;;;17.60;99.90;;;;;;5055557;28;20045;-71
2023/08/15 00:57:07;;;;;;;12.68;8.32;;;17.60;99.90;;;;;;5047183;28;20453;-70
2023/08/15 00:59:33;;;;;;;12.73;8.38;;;17.60;99.90;;;;;;5047403;28;20040;-71
2023/08/15 01:01:59;;;;;;;14.57;8.45;;;17.60;99.90;;;;;;5049850;28;20405;-71
2023/08/15 01:04:26;;;;;;;14.98;8.95;;;17.60;99.90;;;;;;5047412;28;20131;-70
2023/08/15 01:06:52;;;;;;;20.33;9.45;;;17.60;99.90;;;;;;5046948;28;20041;-71
2023/08/15 01:09:17;;;;;;;15.73;9.13;;;17.60;99.90;;;;;;5047030;28;20045;-71
2023/08/15 01:11:59;;;;;;;14.95;8.52;;;17.60;99.90;;;;;;5030259;28;20515;-71
2023/08/15 01:14:30;;;;;;;15.02;8.65;;;17.60;99.90;;;;;;5030420;28;20112;-71
2023/08/15 01:16:57;;;;;;;18.38;8.27;;;17.60;99.90;;;;;;5045737;28;20044;-71
2023/08/15 01:19:39;;;;;;;14.13;9.02;;;17.60;99.90;;;;;;5030601;28;20044;-72
2023/08/15 01:22:14;;;;;;;16.58;8.73;;;17.60;99.90;;;;;;5062877;28;20534;-72
2023/08/15 01:24:41;;;;;;;13.50;8.98;;;17.60;99.90;;;;;;5066732;28;20036;-71
2023/08/15 01:27:06;;;;;;;15.35;8.98;;;17.60;99.90;;;;;;5067796;28;20040;-71
2023/08/15 01:29:32;;;;;;;15.07;8.48;;;17.50;99.90;;;;;;5062068;28;20048;-71
2023/08/15 01:32:06;;;;;;;14.95;8.85;;;17.50;99.90;;;;;;5039317;28;20074;-71
2023/08/15 01:34:36;;;;;;;16.35;8.75;;;17.60;99.90;;;;;;5050354;28;20527;-72
2023/08/15 01:37:27;;;;;;;15.40;8.55;;;17.50;99.90;;;;;;5059620;28;20072;-72
2023/08/15 01:39:56;;;;;;;15.85;8.18;;;17.50;99.90;;;;;;5049436;28;20472;-71
2023/08/15 01:42:22;;;;;;;14.52;8.30;;;17.50;99.90;;;;;;5030708;28;20041;-72
2023/08/15 01:44:50;;;;;;;14.15;8.23;;;17.50;99.90;;;;;;5046454;28;20075;-71
2023/08/15 01:47:15;;;;;;;13.07;8.63;;;17.50;99.90;;;;;;5029326;28;20044;-70
2023/08/15 01:49:41;;;;;;;18.15;9.02;;;17.50;99.90;;;;;;5029785;28;20041;-72
2023/08/15 01:52:07;;;;;;;17.30;9.20;;;17.50;99.90;;;;;;5046272;28;20500;-72
2023/08/15 01:54:32;;;;;;;17.10;9.60;;;17.50;99.90;;;;;;5066781;28;20506;-71
2023/08/15 01:56:58;;;;;;;13.27;8.55;;;17.50;99.90;;;;;;5059200;28;20067;-72
2023/08/15 01:59:23;;;;;;;16.13;9.32;;;17.40;99.90;;;;;;5047738;28;20507;-71
2023/08/15 02:01:49;;;;;;;17.42;9.27;;;17.40;99.90;;;;;;5054127;28;20065;-71
2023/08/15 02:04:14;;;;;;;16.67;9.70;;;17.40;99.90;;;;;;5066104;28;20492;-72
2023/08/15 02:06:40;;;;;;;15.45;9.43;;;17.40;99.90;;;;;;5065799;28;20090;-71
2023/08/15 02:09:06;;;;;;;19.10;9.77;;;17.40;99.90;;;;;;5047134;28;20511;-71
2023/08/15 02:11:31;;;;;;;12.48;9.25;;;17.40;99.90;;;;;;5049018;28;20492;-72
2023/08/15 02:13:58;;;;;;;19.38;9.65;;;17.40;99.90;;;;;;5040954;28;20034;-71
2023/08/15 02:16:23;;;;;;;16.17;10.25;;;17.40;99.90;;;;;;5038452;28;20500;-71
2023/08/15 02:18:49;;;;;;;16.42;9.50;;;17.30;99.90;;;;;;5065816;28;20076;-70
2023/08/15 02:21:14;;;;;;;13.25;9.63;;;17.30;99.90;;;;;;5065597;28;20131;-71
2023/08/15 02:23:40;;;;;;;20.65;10.48;;;17.30;99.90;;;;;;5065884;28;20044;-71
2023/08/15 02:26:06;;;;;;;18.40;9.73;;;17.30;99.90;;;;;;5057588;28;20048;-73
2023/08/15 02:28:31;;;;;;;13.93;9.52;;;17.30;99.90;;;;;;5029410;28;20044;-71
2023/08/15 02:30:57;;;;;;;17.77;10.30;;;17.30;99.90;;;;;;5060698;28;20419;-71
2023/08/15 02:33:23;;;;;;;15.60;10.82;;;17.30;99.90;;;;;;5065585;28;20044;-71
2023/08/15 02:35:51;;;;;;;18.42;11.65;;;17.30;99.90;;;;;;5065333;28;20240;-70
2023/08/15 02:38:16;;;;;;;18.27;10.80;;;17.30;99.90;;;;;;5047086;28;20044;-71
2023/08/15 02:40:42;;;;;;;17.98;10.02;;;17.30;99.90;;;;;;5028663;28;20493;-70
2023/08/15 02:43:08;;;;;;;17.02;10.30;;;17.30;99.90;;;;;;5062080;28;20048;-71
2023/08/15 02:45:34;;;;;;;18.88;11.15;;;17.30;99.90;;;;;;5064169;28;20041;-70
2023/08/15 02:47:59;;;;;;;19.10;10.68;;;17.30;99.90;;;;;;5063245;28;20036;-71
2023/08/15 02:50:25;;;;;;;18.45;10.75;;;17.30;99.90;;;;;;5048455;28;20048;-71
2023/08/15 02:52:51;;;;;;;17.88;10.43;;;17.30;99.90;;;;;;5048283;28;20455;-70
2023/08/15 02:55:16;;;;;;;16.88;10.75;;;17.30;99.90;;;;;;5052023;28;20484;-71
2023/08/15 02:57:42;;;;;;;16.27;10.70;;;17.30;99.90;;;;;;5046366;28;20111;-70
2023/08/15 03:00:09;;;;;;;14.43;9.32;;;17.40;99.90;;;;;;5028386;28;20455;-71
2023/08/15 03:02:35;;;;;;;18.55;11.18;;;17.40;99.90;;;;;;5045533;28;20448;-71
2023/08/15 03:05:00;;;;;;;19.40;11.07;;;17.30;99.90;;;;;;5028635;28;20052;-71
2023/08/15 03:07:26;;;;;;;17.65;10.98;;;17.30;99.90;;;;;;5053714;28;20040;-71
2023/08/15 03:09:51;;;;;;;19.23;10.65;;;17.30;99.90;;;;;;5048560;28;20220;-71
2023/08/15 03:12:17;;;;;;;20.65;10.95;;;17.30;99.90;;;;;;5065944;28;20089;-71
2023/08/15 03:14:43;;;;;;;20.05;11.30;;;17.30;99.90;;;;;;5056389;28;20126;-71
2023/08/15 03:17:08;;;;;;;17.30;11.63;;;17.30;99.90;;;;;;5038690;28;20119;-72
2023/08/15 03:19:34;;;;;;;15.77;11.40;;;17.30;99.90;;;;;;5064763;28;20084;-71
2023/08/15 03:22:00;;;;;;;14.80;10.57;;;17.30;99.90;;;;;;5045884;28;20040;-71
2023/08/15 03:24:30;;;;;;;17.73;11.13;;;17.30;99.90;;;;;;5048418;28;20071;-71
2023/08/15 03:26:55;;;;;;;18.98;12.30;;;17.30;99.90;;;;;;5033521;28;20057;-71
2023/08/15 03:29:21;;;;;;;23.25;11.95;;;17.30;99.90;;;;;;5044279;28;20530;-71
2023/08/15 03:31:47;;;;;;;16.45;11.23;;;17.30;99.90;;;;;;5035682;28;20036;-71
2023/08/15 03:34:12;;;;;;;21.10;12.15;;;17.30;99.90;;;;;;5047877;28;20036;-71
2023/08/15 03:36:38;;;;;;;16.33;11.10;;;17.30;99.90;;;;;;5060510;28;20162;-70
2023/08/15 03:39:04;;;;;;;20.88;12.25;;;17.30;99.90;;;;;;5027594;28;20306;-70
2023/08/15 03:41:29;;;;;;;21.25;12.10;;;17.30;99.90;;;;;;5044161;28;20620;-71
2023/08/15 03:43:55;;;;;;;20.90;12.45;;;17.30;99.90;;;;;;5027798;28;20132;-70
2023/08/15 03:46:20;;;;;;;18.58;11.40;;;17.30;99.90;;;;;;5050619;28;20051;-70
2023/08/15 03:48:46;;;;;;;22.63;12.23;;;17.30;99.90;;;;;;5044143;28;20045;-70
2023/08/15 03:51:12;;;;;;;19.88;13.45;;;17.30;99.90;;;;;;5058941;28;20408;-70
2023/08/15 03:53:38;;;;;;;19.85;13.88;;;17.30;99.90;;;;;;5064039;28;20047;-70
2023/08/15 03:56:04;;;;;;;21.90;14.52;;;17.30;99.90;;;;;;5063852;28;20041;-69
2023/08/15 03:58:29;;;;;;;19.55;16.33;;;17.30;99.90;;;;;;5063285;28;20129;-70
2023/08/15 04:00:55;;;;;;;24.27;17.88;;;17.40;99.90;;;;;;5043582;28;20068;-70
2023/08/15 04:03:20;;;;;;;30.38;19.52;;;17.50;99.90;;;;;;5065318;28;20193;-66
2023/08/15 04:05:47;;;;;;;32.08;19.88;;;17.60;99.90;;;;;;5063600;28;20044;-71
2023/08/15 04:08:14;;;;;;;29.13;19.70;;;17.80;99.90;;;;;;5056072;28;20393;-68
2023/08/15 04:10:40;;;;;;;27.35;19.52;;;17.90;99.90;;;;;;5045147;28;20128;-70
2023/08/15 04:13:10;;;;;;;25.73;18.75;;;18.00;99.90;;;;;;5043599;28;20397;-69
2023/08/15 04:15:36;;;;;;;28.50;19.23;;;18.10;99.90;;;;;;5042930;28;20041;-68
2023/08/15 04:18:07;;;;;;;28.17;17.58;;;18.20;99.90;;;;;;5062104;28;20036;-68
2023/08/15 04:20:36;;;;;;;25.20;17.40;;;18.20;99.90;;;;;;5063671;28;20052;-72
2023/08/15 04:23:02;;;;;;;26.05;17.90;;;18.30;99.90;;;;;;5063402;28;20048;-73
2023/08/15 04:25:28;;;;;;;23.10;17.58;;;18.40;99.90;;;;;;5044768;28;20044;-72
2023/08/15 04:27:53;;;;;;;24.17;17.65;;;18.40;99.90;;;;;;5097236;28;20049;-69
2023/08/15 04:30:20;;;;;;;24.00;17.67;;;18.40;99.90;;;;;;5063650;28;20557;-71
2023/08/15 04:32:46;;;;;;;27.10;16.52;;;18.40;99.90;;;;;;5077852;28;20298;-71
2023/08/15 04:35:13;;;;;;;26.95;18.42;;;18.50;99.90;;;;;;5065414;28;20102;-71
2023/08/15 04:37:39;;;;;;;24.65;18.02;;;18.50;99.90;;;;;;5063647;28;20040;-71
2023/08/15 04:40:05;;;;;;;24.60;16.77;;;18.50;99.90;;;;;;5061815;28;20130;-70
2023/08/15 04:42:30;;;;;;;24.35;16.85;;;18.50;99.90;;;;;;5047097;28;20041;-69
2023/08/15 04:44:56;;;;;;;24.25;17.10;;;18.50;99.90;;;;;;5064955;28;20046;-70
2023/08/15 04:47:22;;;;;;;29.05;16.45;;;18.50;99.90;;;;;;5043757;28;20109;-70
2023/08/15 04:49:48;;;;;;;27.30;16.10;;;18.50;99.90;;;;;;5079988;28;20040;-69
2023/08/15 04:52:15;;;;;;;24.45;17.70;;;18.40;99.90;;;;;;5064949;28;20266;-69
2023/08/15 04:54:41;;;;;;;25.13;17.05;;;18.40;99.90;;;;;;5053339;28;20079;-70
2023/08/15 04:57:07;;;;;;;23.02;16.80;;;18.40;99.90;;;;;;5043231;28;20069;-70
2023/08/15 04:59:32;;;;;;;30.27;16.95;;;18.40;99.90;;;;;;5043289;28;20037;-69
2023/08/15 05:01:58;;;;;;;26.23;16.90;;;18.40;99.90;;;;;;5042458;28;20057;-69
2023/08/15 05:04:23;;;;;;;25.70;17.70;;;18.40;99.90;;;;;;5044816;28;20053;-70
2023/08/15 05:06:49;;;;;;;26.08;18.48;;;18.40;99.90;;;;;;5026892;28;20052;-70
2023/08/15 05:09:15;;;;;;;26.92;17.10;;;18.40;99.90;;;;;;5056481;28;20040;-70
2023/08/15 05:11:42;;;;;;;27.38;19.05;;;18.30;99.90;;;;;;5064591;28;20036;-69
2023/08/15 05:14:08;;;;;;;31.85;18.48;;;18.30;99.90;;;;;;5046605;28;20051;-70
2023/08/15 05:16:33;;;;;;;25.02;18.17;;;18.30;99.90;;;;;;5055624;28;20037;-68
2023/08/15 05:18:59;;;;;;;23.98;17.27;;;18.30;99.90;;;;;;5043668;28;20119;-69
2023/08/15 05:21:25;;;;;;;27.30;16.67;;;18.30;99.90;;;;;;5050310;28;20063;-69
2023/08/15 05:23:51;;;;;;;23.52;15.32;;;18.30;99.90;;;;;;5046474;28;20517;-68
2023/08/15 05:26:17;;;;;;;23.90;16.30;;;18.40;99.90;;;;;;5057693;28;20128;-68
2023/08/15 05:28:42;;;;;;;22.23;13.15;;;18.30;99.90;;;;;;5030385;28;20056;-70
2023/08/15 05:31:08;;;;;;;20.25;9.93;;;18.30;99.90;;;;;;5045794;28;20037;-68
2023/08/15 05:33:34;;;;;;;19.65;10.27;;;18.40;99.90;;;;;;5030101;28;20036;-68
2023/08/15 05:35:59;;;;;;;15.57;10.00;;;18.40;99.90;;;;;;5046251;28;20037;-68
2023/08/15 05:38:25;;;;;;;21.75;10.45;;;18.50;99.90;;;;;;5053839;28;20032;-69
2023/08/15 05:40:50;;;;;;;19.15;10.30;;;18.50;99.90;;;;;;5066371;28;20468;-69
2023/08/15 05:43:16;;;;;;;16.40;11.23;;;18.50;99.90;;;;;;5068056;28;20488;-68
2023/08/15 05:45:45;;;;;;;19.77;10.27;;;18.50;99.90;;;;;;5064713;28;20454;-70
2023/08/15 05:48:11;;;;;;;16.70;10.38;;;18.50;99.90;;;;;;5062929;28;20080;-67
2023/08/15 05:50:37;;;;;;;17.55;10.27;;;18.60;99.90;;;;;;5046172;28;20072;-70
2023/08/15 05:53:03;;;;;;;18.98;10.68;;;18.60;99.90;;;;;;5029762;28;20045;-70
2023/08/15 05:55:28;;;;;;;17.63;11.10;;;18.60;99.90;;;;;;5054638;28;20440;-69
2023/08/15 05:57:54;;;;;;;17.67;11.98;;;18.60;99.90;;;;;;5049419;28;20043;-67
2023/08/15 06:00:20;;;;;;;19.02;11.15;;;18.60;99.90;;;;;;5049531;28;20136;-71
2023/08/15 06:02:45;;;;;;;18.77;11.60;;;18.60;99.90;;;;;;5047661;28;20057;-71
2023/08/15 06:05:11;;;;;;;19.65;12.65;;;18.60;99.90;;;;;;5047599;28;20052;-71
2023/08/15 06:07:36;;;;;;;21.38;11.82;;;18.60;99.90;;;;;;5045841;28;20040;-67
2023/08/15 06:10:02;;;;;;;19.20;11.77;;;18.60;99.90;;;;;;5029213;28;20337;-69
2023/08/15 06:12:28;;;;;;;18.90;11.43;;;18.60;99.90;;;;;;5029388;28;20574;-68
2023/08/15 06:14:53;;;;;;;21.73;11.93;;;18.60;99.90;;;;;;5050747;28;20032;-72
2023/08/15 06:17:19;;;;;;;21.95;10.65;;;18.60;99.90;;;;;;5034728;28;20071;-69
2023/08/15 06:19:45;;;;;;;18.50;11.38;;;18.50;99.90;;;;;;5029586;28;20049;-72
2023/08/15 06:22:10;;;;;;;19.70;10.85;;;18.60;99.90;;;;;;5053593;28;20051;-68
2023/08/15 06:24:36;;;;;;;17.08;10.15;;;18.60;99.90;;;;;;5065843;28;20567;-69
2023/08/15 06:27:03;;;;;;;20.77;10.75;;;18.60;99.90;;;;;;5065558;28;20047;-70
2023/08/15 06:29:28;;;;;;;18.23;10.50;;;18.60;99.90;;;;;;5047503;28;20093;-74
2023/08/15 06:31:54;;;;;;;20.33;10.48;;;18.60;99.90;;;;;;5062343;28;20048;-74
2023/08/15 06:34:20;;;;;;;16.20;9.85;;;18.70;99.90;;;;;;5049048;28;20113;-70
2023/08/15 06:36:45;;;;;;;16.55;8.82;;;18.70;99.90;;;;;;5066126;28;20120;-69
2023/08/15 06:39:11;;;;;;;16.95;9.50;;;18.90;99.90;;;;;;5036911;28;20037;-72
2023/08/15 06:41:37;;;;;;;19.70;9.35;;;19.00;99.90;;;;;;5028528;28;20045;-72
2023/08/15 06:44:04;;;;;;;15.88;8.52;;;19.10;99.90;;;;;;5029242;28;20052;-71
2023/08/15 06:46:29;;;;;;;17.67;8.68;;;19.20;99.90;;;;;;5046691;28;20056;-72
2023/08/15 06:48:55;;;;;;;20.70;8.60;;;19.20;99.90;;;;;;5045625;28;20259;-70
2023/08/15 06:51:21;;;;;;;17.00;9.10;;;19.30;99.90;;;;;;5059882;28;20041;-68
2023/08/15 06:53:49;;;;;;;17.52;8.23;;;19.30;99.90;;;;;;5065022;28;20068;-68
2023/08/15 06:56:15;;;;;;;19.45;8.20;;;19.30;99.90;;;;;;5048304;28;20080;-68
2023/08/15 06:58:40;;;;;;;17.98;8.20;;;19.40;99.90;;;;;;5049880;28;20072;-72
2023/08/15 07:01:06;;;;;;;17.55;7.60;;;19.50;99.90;;;;;;5046232;28;20044;-72
2023/08/15 07:03:33;;;;;;;14.45;6.90;;;19.50;99.90;;;;;;5065320;28;20670;-72
2023/08/15 07:05:59;;;;;;;15.75;6.35;;;19.60;99.90;;;;;;5048281;28;20040;-69
2023/08/15 07:08:25;;;;;;;19.42;7.00;;;19.70;99.90;;;;;;5065406;28;20089;-68
2023/08/15 07:10:57;;;;;;;18.38;7.03;;;19.70;99.90;;;;;;5055881;28;20029;-73
2023/08/15 07:13:23;;;;;;;15.95;6.63;;;19.70;99.90;;;;;;5044896;28;20049;-74
2023/08/15 07:15:55;;;;;;;14.85;6.22;;;19.70;99.90;;;;;;5055597;28;20048;-69
2023/08/15 07:18:23;;;;;;;15.00;5.97;;;19.80;99.90;;;;;;5026489;28;20546;-68
2023/08/15 07:20:52;;;;;;;14.25;6.20;;;19.80;99.90;;;;;;5024693;28;20408;-69
2023/08/15 07:23:18;;;;;;;14.15;5.68;;;20.00;99.90;;;;;;5024915;28;20126;-68
2023/08/15 07:25:44;;;;;;;10.80;5.07;;;20.10;99.90;;;;;;5029376;28;20056;-70
2023/08/15 07:28:10;;;;;;;13.15;5.50;;;20.30;99.90;;;;;;5044778;28;20362;-68
2023/08/15 07:30:36;;;;;;;16.13;5.50;;;20.40;99.90;;;;;;5044308;28;20032;-67
2023/08/15 07:33:02;;;;;;;20.08;6.72;;;20.40;99.90;;;;;;5061258;28;20462;-73
2023/08/15 07:35:28;;;;;;;14.88;4.97;;;20.50;99.90;;;;;;5047766;28;20040;-69
2023/08/15 07:37:54;;;;;;;14.50;5.38;;;20.50;99.90;;;;;;5064093;28;20032;-67
2023/08/15 07:40:21;;;;;;;12.68;4.65;;;20.60;99.90;;;;;;5056516;28;20060;-69
2023/08/15 07:42:53;;;;;;;18.98;4.50;;;20.70;99.90;;;;;;5044028;28;20067;-69
2023/08/15 07:45:22;;;;;;;15.98;5.70;;;20.70;99.90;;;;;;5037339;28;20051;-70
2023/08/15 07:47:51;;;;;;;12.20;4.88;;;20.70;99.90;;;;;;5045940;28;20066;-68
2023/08/15 07:50:23;;;;;;;11.20;4.63;;;20.80;99.90;;;;;;5034563;28;20032;-65
2023/08/15 07:52:49;;;;;;;11.45;4.50;;;20.90;99.90;;;;;;5064358;28;20522;-67
2023/08/15 07:55:15;;;;;;;17.45;5.18;;;20.90;99.90;;;;;;5047693;28;20032;-70
2023/08/15 07:57:43;;;;;;;16.50;5.20;;;20.90;99.90;;;;;;5063742;28;20047;-71
2023/08/15 08:00:10;;;;;;;11.27;4.75;;;20.90;99.90;;;;;;5045907;28;20381;-69
2023/08/15 08:02:36;;;;;;;15.88;5.32;;;21.00;99.90;;;;;;5040586;28;20419;-69
2023/08/15 08:05:03;;;;;;;13.95;4.38;;;21.10;99.90;;;;;;5063765;28;20049;-71
2023/08/15 08:07:31;;;;;;;15.02;3.85;;;21.10;99.90;;;;;;5063816;28;20574;-68
2023/08/15 08:09:57;;;;;;;13.15;3.50;;;21.10;99.90;;;;;;5062366;28;20372;-70
2023/08/15 08:12:23;;;;;;;11.68;3.20;;;21.10;99.90;;;;;;5064981;28;20052;-66
2023/08/15 08:14:48;;;;;;;10.48;3.33;;;21.20;99.90;;;;;;5065209;28;20162;-71
2023/08/15 08:17:14;;;;;;;10.70;3.25;;;21.20;99.90;;;;;;5061385;28;20045;-68
2023/08/15 08:19:39;;;;;;;16.08;3.78;;;21.40;99.90;;;;;;5063778;28;20044;-66
2023/08/15 08:22:05;;;;;;;12.43;3.53;;;21.50;99.90;;;;;;5063540;28;20040;-67
2023/08/15 08:24:30;;;;;;;11.65;3.40;;;21.50;99.90;;;;;;5063788;28;20271;-67
2023/08/15 08:26:56;;;;;;;10.20;4.10;;;21.50;99.90;;;;;;5033281;28;20051;-69
2023/08/15 08:29:22;;;;;;;10.40;3.10;;;21.60;99.90;;;;;;5077248;28;20350;-68
2023/08/15 08:31:48;;;;;;;8.73;2.63;;;21.60;99.90;;;;;;5043757;28;20040;-68
2023/08/15 08:34:14;;;;;;;13.38;3.20;;;21.70;99.90;;;;;;5027094;28;20098;-67
2023/08/15 08:36:40;;;;;;;11.68;2.70;;;21.90;99.90;;;;;;5026697;28;20511;-67
2023/08/15 08:39:09;;;;;;;11.32;3.08;;;21.80;99.90;;;;;;5043425;28;20459;-69
2023/08/15 08:41:36;;;;;;;10.45;2.80;;;21.80;99.90;;;;;;5026868;28;20373;-67
2023/08/15 08:44:02;;;;;;;13.50;3.38;;;21.80;99.90;;;;;;5043426;28;20404;-67
2023/08/15 08:46:29;;;;;;;8.40;2.55;;;21.90;99.90;;;;;;5042473;28;20407;-67
2023/08/15 08:48:58;;;;;;;9.88;2.67;;;21.90;99.90;;;;;;5043413;28;20135;-67
2023/08/15 08:51:25;;;;;;;9.00;2.17;;;22.10;99.90;;;;;;5043109;28;20041;-67
2023/08/15 08:53:51;;;;;;;10.05;2.67;;;22.40;99.90;;;;;;5043147;28;20408;-69
2023/08/15 08:56:29;;;;;;;11.18;2.63;;;22.50;99.90;;;;;;5058707;28;20341;-70
2023/08/15 08:59:11;;;;;;;9.18;2.00;;;22.70;99.90;;;;;;5053338;28;20067;-68
2023/08/15 09:01:38;;;;;;;8.52;2.38;;;22.90;99.90;;;;;;5028710;28;20045;-66
2023/08/15 09:04:04;;;;;;;11.35;2.55;;;23.10;99.90;;;;;;5047363;28;20106;-65
2023/08/15 09:06:30;;;;;;;6.88;1.85;;;23.20;99.90;;;;;;5046964;28;20052;-66
2023/08/15 09:08:58;;;;;;;9.73;1.80;;;23.10;99.90;;;;;;5057514;28;20053;-67
2023/08/15 09:11:31;;;;;;;8.27;2.10;;;23.20;99.90;;;;;;5066942;28;20036;-67
2023/08/15 09:14:00;;;;;;;9.50;2.47;;;23.10;99.90;;;;;;5050475;28;20048;-68
2023/08/15 09:16:26;;;;;;;7.97;2.03;;;23.00;99.90;;;;;;5043668;28;20530;-67
2023/08/15 09:18:52;;;;;;;8.85;2.45;;;23.00;99.90;;;;;;5067124;28;20044;-69
2023/08/15 09:21:17;;;;;;;8.13;2.17;;;23.00;99.90;;;;;;5097667;28;20052;-66
2023/08/15 09:23:44;;;;;;;7.63;2.47;;;23.00;99.90;;;;;;5046777;28;20041;-66
2023/08/15 09:26:16;;;;;;;9.90;2.35;;;23.00;99.90;;;;;;5030318;28;20064;-67
2023/08/15 09:28:43;;;;;;;10.07;2.00;;;23.00;99.90;;;;;;5046735;28;20066;-67
2023/08/15 09:31:10;;;;;;;5.65;1.95;;;23.10;99.90;;;;;;5045652;28;20102;-69
2023/08/15 09:33:39;;;;;;;8.98;2.20;;;23.20;99.90;;;;;;5048343;28;20051;-66
2023/08/15 09:36:06;;;;;;;10.32;2.22;;;23.20;99.90;;;;;;5047144;28;20032;-67
2023/08/15 09:38:35;;;;;;;9.00;2.15;;;23.20;99.90;;;;;;5050000;28;20059;-66
2023/08/15 09:41:00;;;;;;;6.55;1.70;;;23.10;99.90;;;;;;5049883;28;20555;-66
2023/08/15 09:43:26;;;;;;;12.10;2.65;;;23.20;99.90;;;;;;5048022;28;20150;-67
2023/08/15 09:45:53;;;;;;;10.00;2.35;;;23.10;99.90;;;;;;5065002;28;20399;-66
2023/08/15 09:48:19;;;;;;;10.05;2.08;;;23.20;99.90;;;;;;5043384;28;20049;-68
2023/08/15 09:50:47;;;;;;;9.90;2.30;;;23.30;99.90;;;;;;5009755;28;20038;-68
2023/08/15 09:53:14;;;;;;;7.78;1.92;;;23.30;99.90;;;;;;5059807;28;20091;-68
2023/08/15 09:55:40;;;;;;;7.00;1.70;;;23.20;99.90;;;;;;5044212;28;20106;-66
2023/08/15 09:58:07;;;;;;;6.93;2.08;;;23.10;99.90;;;;;;5066125;28;20514;-67
2023/08/15 10:00:35;;;;;;;10.27;2.10;;;23.10;99.90;;;;;;5059006;28;20041;-65
2023/08/15 10:03:21;;;;;;;7.70;2.20;;;23.00;99.90;;;;;;5028549;28;20726;-69
2023/08/15 10:05:55;;;;;;;11.20;2.40;;;22.80;99.90;;;;;;5038497;28;20052;-68
2023/08/15 10:08:22;;;;;;;8.25;1.80;;;22.60;99.90;;;;;;5029523;28;20048;-65
2023/08/15 10:10:50;;;;;;;6.55;1.88;;;22.60;99.90;;;;;;5037661;28;20447;-67
2023/08/15 10:13:19;;;;;;;4.97;1.58;;;22.60;99.90;;;;;;5065025;28;20049;-66
2023/08/15 10:15:46;;;;;;;6.75;1.60;;;22.60;99.90;;;;;;5055449;28;20047;-69
2023/08/15 10:18:11;;;;;;;10.45;2.55;;;22.70;99.90;;;;;;5025256;28;20397;-68
2023/08/15 10:20:37;;;;;;;7.60;1.73;;;22.80;99.90;;;;;;5059080;28;20132;-69
2023/08/15 10:23:07;;;;;;;8.15;1.52;;;22.80;99.90;;;;;;5059542;28;20088;-65
2023/08/15 10:25:35;;;;;;;10.63;1.85;;;22.80;99.90;;;;;;5090415;28;20070;-66
2023/08/15 10:28:06;;;;;;;8.15;1.75;;;22.80;99.90;;;;;;5065623;28;20056;-68
2023/08/15 10:30:35;;;;;;;8.10;2.08;;;22.80;99.90;;;;;;5051330;28;20487;-70
2023/08/15 10:33:14;;;;;;;8.57;1.85;;;22.70;99.90;;;;;;5044799;28;20047;-66
2023/08/15 10:35:55;;;;;;;7.50;1.70;;;22.90;99.90;;;;;;5065452;28;20041;-67
2023/08/15 10:38:21;;;;;;;6.72;1.90;;;23.00;99.90;;;;;;5057873;28;20041;-67
2023/08/15 10:40:49;;;;;;;9.52;1.70;;;23.00;99.90;;;;;;5028670;28;20145;-71
2023/08/15 10:43:16;;;;;;;9.02;2.05;;;23.20;99.90;;;;;;5045490;28;20120;-68
2023/08/15 10:45:46;;;;;;;8.45;1.88;;;23.30;99.90;;;;;;5043985;28;20048;-67
2023/08/15 10:48:12;;;;;;;7.72;1.73;;;23.40;99.90;;;;;;5045273;28;20080;-68
2023/08/15 10:50:46;;;;;;;8.05;1.85;;;23.40;99.90;;;;;;5046722;28;20052;-67
2023/08/15 10:53:12;;;;;;;6.57;2.05;;;23.30;99.90;;;;;;5045361;28;20079;-66
2023/08/15 10:55:39;;;;;;;6.97;1.83;;;23.20;99.90;;;;;;5055059;28;20162;-68
2023/08/15 10:58:09;;;;;;;7.82;1.92;;;23.20;99.90;;;;;;5065273;28;20127;-66
2023/08/15 11:00:36;;;;;;;6.75;2.00;;;23.30;99.90;;;;;;5058170;28;20123;-65
2023/08/15 11:03:03;;;;;;;8.23;1.95;;;23.30;99.90;;;;;;5063572;28;20048;-66
2023/08/15 11:05:41;;;;;;;7.28;2.10;;;23.30;99.90;;;;;;5064994;28;20071;-66
2023/08/15 11:08:15;;;;;;;7.75;1.80;;;23.30;99.90;;;;;;5065152;28;20419;-66
2023/08/15 11:10:44;;;;;;;;;;;23.40;99.90;;;;;;5046567;28;20155;-67
2023/08/15 11:13:10;;;;;;;7.05;1.70;;;23.40;99.90;;;;;;5064487;28;19971;-68
2023/08/15 11:15:36;;;;;;;8.98;1.90;;;23.50;99.90;;;;;;5058546;28;20083;-70
2023/08/15 11:18:02;;;;;;;7.05;1.60;;;23.50;99.90;;;;;;5061730;28;20040;-68
2023/08/15 11:20:29;;;;;;;7.32;2.35;;;23.40;99.90;;;;;;5064961;28;20036;-68
2023/08/15 11:22:58;;;;;;;8.30;2.33;;;23.40;99.90;;;;;;5065621;28;20057;-68
2023/08/15 11:25:24;;;;;;;8.43;2.00;;;23.30;99.90;;;;;;5051110;28;20048;-68
2023/08/15 11:27:52;;;;;;;8.10;2.00;;;23.30;99.90;;;;;;5044406;28;20058;-68
2023/08/15 11:30:19;;;;;;;6.70;1.73;;;23.40;99.90;;;;;;5029936;28;20161;-66
2023/08/15 11:32:45;;;;;;;6.53;2.10;;;23.40;99.90;;;;;;5058699;28;20040;-68
2023/08/15 11:35:12;;;;;;;7.82;2.03;;;23.40;99.90;;;;;;5047541;28;20110;-67
2023/08/15 11:37:40;;;;;;;9.27;2.20;;;23.50;99.90;;;;;;5063175;28;20085;-67
2023/08/15 11:40:06;;;;;;;7.75;2.20;;;23.60;99.90;;;;;;5057947;28;20103;-67
2023/08/15 11:42:33;;;;;;;7.70;2.08;;;23.60;99.90;;;;;;5024651;28;20052;-66
2023/08/15 11:45:11;;;;;;;6.38;1.83;;;23.50;99.90;;;;;;5017672;28;20041;-66
2023/08/15 11:47:51;;;;;;;10.75;2.08;;;23.50;99.90;;;;;;5052096;28;20419;-65
2023/08/15 11:50:18;;;;;;;8.02;2.15;;;23.50;99.90;;;;;;5056172;28;20048;-65
2023/08/15 11:52:45;;;;;;;7.63;2.42;;;23.50;99.90;;;;;;5044423;28;20561;-68
2023/08/15 11:55:11;;;;;;;7.28;2.15;;;23.40;99.90;;;;;;5044222;28;20435;-65
2023/08/15 11:57:37;;;;;;;7.20;2.30;;;23.40;99.90;;;;;;5061244;28;20044;-66
2023/08/15 12:00:04;;;;;;;7.03;2.40;;;23.40;99.90;;;;;;5063094;28;20040;-66
2023/08/15 12:02:29;;;;;;;8.27;2.20;;;23.30;99.90;;;;;;5049940;28;20403;-64
2023/08/15 12:04:55;;;;;;;8.20;2.10;;;23.20;99.90;;;;;;5063831;28;20044;-66
2023/08/15 12:07:21;;;;;;;8.50;2.45;;;23.10;99.90;;;;;;5063890;28;20033;-63
2023/08/15 12:09:46;;;;;;;7.13;2.30;;;23.00;99.90;;;;;;5054383;28;20045;-66
2023/08/15 12:12:24;;;;;;;9.80;2.65;;;22.90;99.90;;;;;;5043744;28;20036;-64
2023/08/15 12:14:50;;;;;;;9.15;2.92;;;22.90;99.90;;;;;;5043745;28;20051;-66
2023/08/15 12:17:16;;;;;;;7.35;2.47;;;22.80;99.90;;;;;;5048976;28;20091;-68
2023/08/15 12:19:42;;;;;;;8.80;2.50;;;22.80;99.90;;;;;;5043806;28;20095;-65
2023/08/15 12:22:07;;;;;;;10.25;2.92;;;22.80;99.90;;;;;;5043879;28;20581;-67
2023/08/15 12:24:33;;;;;;;9.25;2.75;;;22.90;99.90;;;;;;5044274;28;20033;-68
2023/08/15 12:26:58;;;;;;;8.18;2.65;;;23.00;99.90;;;;;;5064683;28;20450;-69
2023/08/15 12:29:24;;;;;;;6.50;2.20;;;23.10;99.90;;;;;;5047098;28;20044;-68
2023/08/15 12:31:50;;;;;;;6.88;1.95;;;23.30;99.90;;;;;;5057220;28;20041;-67
2023/08/15 12:34:15;;;;;;;7.80;1.88;;;23.40;99.90;;;;;;5063668;28;20036;-71